Hyundai New York — 9V2196 — position and weather

sailwx.info

Track history (hours):
 
Tides and Currents Weather Stations Pressure Air Temp Water Temp Dewpoint Dewpoint Depression Visibility Wind Speed Wind Dir Waves Ship Positions

Hyundai New York

Last reported at 2018-Apr-19 12:16 UTC. Time now 2018-Apr-24 02:49 UTC.
Position N 30°45' E 122°38'.

Length 293 m; draft 8.7 m.

Type: Ship (hazmat cat A). MMSI: 566999000.

Date/timePositionNaut miles runAvg speedWind from/ knotsBaromVisibWave heightAir tempDewpointWater temp
2018-Apr-19 12:16N 30°45' E 122°38'0 0.3
2018-Apr-19 11:58N 30°45' E 122°38'0 0.1
2018-Apr-19 11:22N 30°45' E 122°38'0 0.0
2018-Apr-18 10:46N 30°45' E 122°38'0 0.0
2018-Apr-18 10:13N 30°45' E 122°38'0 0.0
2018-Apr-18 09:47N 30°45' E 122°38'0 0.0
2018-Apr-18 09:29N 30°45' E 122°38'1 0.1
2018-Apr-18 01:59N 30°45' E 122°38'7 5.6
2018-Apr-18 00:46N 30°49' E 122°31'2 9.4
2018-Apr-18 00:30N 30°52' E 122°31'7 8.9
2018-Apr-17 23:42N 30°59' E 122°30'211.7
2018-Apr-17 23:30N 31°01' E 122°31'5 9.0
2018-Apr-17 23:00N 31°05' E 122°31'5 8.5
2018-Apr-17 22:26N 31°10' E 122°31'5 9.9
2018-Apr-17 21:59N 31°15' E 122°31'611.9
2018-Apr-17 21:30N 31°20' E 122°31'712.7
2018-Apr-17 20:57N 31°27' E 122°32'611.7
2018-Apr-17 20:29N 31°31' E 122°38'4 0.1
2018-Apr-15 16:44N 31°34' E 122°40'  
2018-Apr-12 02:09N 31°34' E 122°40'0 0.0
2018-Apr-12 01:49N 31°34' E 122°40'0 0.0
2018-Apr-12 01:26N 31°34' E 122°40'0 0.0
2018-Apr-11 18:59N 31°34' E 122°40'0 0.0
2018-Apr-09 18:53N 31°34' E 122°40'0 0.1
2018-Apr-09 18:17N 31°34' E 122°40'  
Track history (hours):
 
Tides and Currents Weather Stations Pressure Air Temp Water Temp Dewpoint Dewpoint Depression Visibility Wind Speed Wind Dir Waves Ship Positions

Hyundai New York

Last reported at 2018-Apr-19 12:16 UTC. Time now 2018-Apr-24 02:49 UTC.
Position N 30°45' E 122°38'.

Length 293 m; draft 8.7 m.

Type: Ship (hazmat cat A). MMSI: 566999000.

Date/timePositionNaut miles runAvg speedWind from/ knotsBaromVisibWave heightAir tempDewpointWater temp
2018-Apr-19 12:16N 30°45' E 122°38'0 0.3
2018-Apr-19 11:58N 30°45' E 122°38'0 0.1
2018-Apr-19 11:22N 30°45' E 122°38'0 0.0
2018-Apr-18 10:46N 30°45' E 122°38'0 0.0
2018-Apr-18 10:13N 30°45' E 122°38'0 0.0
2018-Apr-18 09:47N 30°45' E 122°38'0 0.0
2018-Apr-18 09:29N 30°45' E 122°38'1 0.1
2018-Apr-18 01:59N 30°45' E 122°38'7 5.6
2018-Apr-18 00:46N 30°49' E 122°31'2 9.4
2018-Apr-18 00:30N 30°52' E 122°31'7 8.9
2018-Apr-17 23:42N 30°59' E 122°30'211.7
2018-Apr-17 23:30N 31°01' E 122°31'5 9.0
2018-Apr-17 23:00N 31°05' E 122°31'5 8.5
2018-Apr-17 22:26N 31°10' E 122°31'5 9.9
2018-Apr-17 21:59N 31°15' E 122°31'611.9
2018-Apr-17 21:30N 31°20' E 122°31'712.7
2018-Apr-17 20:57N 31°27' E 122°32'611.7
2018-Apr-17 20:29N 31°31' E 122°38'4 0.1
2018-Apr-15 16:44N 31°34' E 122°40'  
2018-Apr-12 02:09N 31°34' E 122°40'0 0.0
2018-Apr-12 01:49N 31°34' E 122°40'0 0.0
2018-Apr-12 01:26N 31°34' E 122°40'0 0.0
2018-Apr-11 18:59N 31°34' E 122°40'0 0.0
2018-Apr-09 18:53N 31°34' E 122°40'0 0.1
2018-Apr-09 18:17N 31°34' E 122°40'  

Dump ship's entire track history